• Join FlightAware (Why Join?)
  • Login
  • US Flag 
05:28PM EDT


 

Airport Tracker/Info


-or-


 

Live Flight TrackerFlight Track Log ✈ GJS6221 ✈ 09-Aug-2013 ✈ CYUL - KLGA

Flight Track Log - Related Links

Times and Time Zones

All times are in EDT time to prevent confusion due to time zone crossing. See the GJS6221 flight status page for this flight to view local times or setup timezone preferences in your user account.

Time Position Orientation Groundspeed Altitude Reporting Facility
EDT Latitude Longitude Course Direction KTS MPH feet Rate Location/Type
07:22AM 45.4517 -73.7506 180° South 453 521 1,200  Level Boston Center
07:23AM 45.4050 -73.8147 224° Southwest 291 335 3,500 1,980 Climbing Boston Center
07:24AM 45.3444 -73.8486 201° Southwest 245 282 5,200 2,340 Climbing Boston Center
07:25AM 45.2753 -73.8822 199° South 250 288 8,300 2,700 Climbing Boston Center
07:26AM 45.2019 -73.9158 198° South 269 310 10,700 1,920 Climbing Boston Center
07:27AM 44.9478 -74.0833 180° South  Level FlightAware Approximate
07:27AM 45.0833 -73.9500 191° South 320 368 12,500  Level Montreal Center
07:28AM 45.0000 -74.0000 203° Southwest 340 391 14,000 1,500 Climbing Montreal Center
07:29AM 44.9000 -74.0500 200° South 360 414 15,500 1,500 Climbing Montreal Center
07:30AM 44.8478 -74.0681 194° South 366 421 16,800 1,740 Climbing Boston Center
07:31AM 44.7436 -74.0739 182° South 374 430 18,800 1,980 Climbing Boston Center
07:32AM 44.6433 -74.0797 182° South 363 418 20,800 1,860 Climbing Boston Center
07:33AM 44.5453 -74.0886 184° South 363 418 22,500 1,680 Climbing Boston Center
07:34AM 44.4369 -74.0944 182° South 363 418 24,200 1,560 Climbing Boston Center
07:35AM 44.3369 -74.0975 181° South 363 418 25,700 1,440 Climbing Boston Center
07:36AM 44.2431 -74.0978 180° South 370 426 27,200 1,380 Climbing Boston Center
07:37AM 44.1328 -74.0975 180° South 365 420 28,600 960 Climbing Boston Center
07:38AM 44.0269 -74.0714 170° South 372 428 29,200 480 Climbing Boston Center
07:39AM 43.9394 -74.0519 171° South 396 456 29,600 420 Climbing Boston Center
07:40AM 43.8106 -74.0283 172° South 408 470 30,100 480 Climbing Boston Center
07:41AM 43.6903 -73.9992 170° South 428 493 30,600 540 Climbing Boston Center
07:42AM 43.5675 -73.9817 174° South 435 501 31,200 540 Climbing Boston Center
07:43AM 43.4428 -73.9528 170° South 447 514 31,700 360 Climbing Boston Center
07:44AM 43.3181 -73.9239 170° South 452 520 32,000 120 Climbing Boston Center
07:45AM 43.1892 -73.8981 172° South 462 532 32,000 -720 Level Boston Center
07:46AM 43.0619 -73.9233 188° South 462 532 30,500 -1,800 Descending Boston Center
07:47AM 42.9197 -73.9625 191° South 456 525 28,100 -2,220 Descending Boston Center
07:48AM 42.7964 -73.9736 184° South 450 518 26,100 -2,040 Descending Boston Center
07:49AM 42.6739 -73.9339 167° South 440 506 24,100 -2,100 Descending Boston Center
07:50AM 42.5433 -73.8858 165° South 440 506 22,000 -2,040 Descending Boston Center
07:51AM 42.4272 -73.8436 165° South 445 512 20,000 -1,500 Descending Boston Center
07:52AM 42.3211 -73.8161 169° South 445 512 19,000 -540 Descending Boston Center
07:53AM 42.2211 -73.8194 181° South 416 479 19,000  Level Boston Center
07:54AM 42.1147 -73.8200 180° South 367 422 19,000  Level Boston Center
07:55AM 42.0336 -73.8208 180° South 347 399 19,000  Level Boston Center
07:56AM 41.9208 -73.8239 181° South 335 386 19,000 -660 Level Boston Center
07:57AM 41.8375 -73.8222 179° South 335 386 17,700 -1,620 Descending Boston Center
07:58AM 41.7397 -73.8228 180° South 326 375 15,900 -1,740 Descending Boston Center
07:59AM 41.6625 -73.8267 182° South 321 369 14,300 -1,800 Descending Boston Center
08:00AM 41.5667 -73.8500 190° South 287 330 12,300 -1,860 Descending New York TRACON
08:01AM 41.5000 -73.8667 191° South 271 312 10,600 -1,740 Descending New York TRACON
08:02AM 41.4333 -73.8667 180° South 264 304 9,100 -840 Descending New York TRACON
08:03AM 41.3667 -73.8167 151° Southeast 281 323 9,000 -240 Descending New York TRACON
08:04AM 41.3000 -73.7500 143° Southeast 292 336 8,600 -540 Descending New York TRACON
08:05AM 41.2333 -73.7000 151° Southeast 278 320 8,000 -360 Descending New York TRACON
08:06AM 41.1667 -73.6667 159° South 263 303 8,000 -900 Level New York TRACON
08:07AM 41.1000 -73.6500 169° South 258 297 6,300 -1,800 Descending New York TRACON
08:08AM 41.0333 -73.6500 180° South 245 282 4,500 -1,260 Descending New York TRACON
08:09AM 40.9833 -73.7000 217° Southwest 220 253 4,000 -480 Descending New York TRACON
08:10AM 40.9500 -73.7500 229° Southwest 171 197 3,700 -660 Descending New York TRACON
08:11AM 40.9000 -73.7667 194° South 163 188 2,700 -900 Descending New York TRACON
08:12AM 40.8667 -73.8000 217° Southwest 127 146 2,000 -720 Descending New York TRACON
08:13AM 40.8500 -73.8167 217° Southwest 118 136 1,300 -600 Descending New York TRACON
08:14AM 40.8167 -73.8500 217° Southwest 120 138 800 -600 Descending New York TRACON
08:16AM 40.7772 -73.8726 180° South  Level Estimated
08:23AM 40.7772 -73.8726 180° South  Level Estimated